createdAt,value
2018-10-02T00:00:04.129Z,99767.36
2018-10-02T00:06:09.174Z,99771.19
2018-10-02T00:12:19.161Z,99768.32
2018-10-02T00:18:24.110Z,99774.53
2018-10-02T00:24:29.065Z,99773.56
2018-10-02T00:30:34.037Z,99774.38
2018-10-02T00:36:38.910Z,99775.86
2018-10-02T00:42:43.498Z,99782.77
2018-10-02T00:48:48.297Z,99786.13
2018-10-02T00:54:52.896Z,99777.97
2018-10-02T01:00:57.491Z,99765.03
2018-10-02T01:07:02.135Z,99764.70
2018-10-02T01:13:07.427Z,99759.55
2018-10-02T01:19:12.036Z,99753.02
2018-10-02T01:25:16.660Z,99751.09
2018-10-02T01:31:21.367Z,99746.69
2018-10-02T01:37:26.313Z,99750.95
2018-10-02T01:43:31.434Z,99751.38
2018-10-02T01:49:36.163Z,99759.19
2018-10-02T01:55:41.900Z,99766.44
2018-10-02T02:01:46.642Z,99763.23
2018-10-02T02:07:51.406Z,99762.81
2018-10-02T02:13:56.099Z,99753.30
2018-10-02T02:20:00.768Z,99755.11
2018-10-02T02:26:05.728Z,99754.91
2018-10-02T02:32:10.289Z,99743.81
2018-10-02T02:38:14.969Z,99750.41
2018-10-02T02:44:19.616Z,99751.95
2018-10-02T02:50:29.365Z,99739.75
2018-10-02T02:56:33.997Z,99734.44
2018-10-02T03:02:38.616Z,99717.50
2018-10-02T03:08:43.242Z,99713.59
2018-10-02T03:14:47.905Z,99709.98
2018-10-02T03:20:52.839Z,99710.77
2018-10-02T03:26:57.728Z,99716.58
2018-10-02T03:33:02.685Z,99724.92
2018-10-02T03:39:09.386Z,99723.82
2018-10-02T03:45:14.775Z,99711.05
2018-10-02T03:51:19.824Z,99702.02
2018-10-02T03:57:24.686Z,99688.78
2018-10-02T04:03:29.321Z,99689.81
2018-10-02T04:09:33.973Z,99685.67
2018-10-02T04:15:38.648Z,99690.39
2018-10-02T04:21:43.229Z,99698.41
2018-10-02T04:27:48.283Z,99693.41
2018-10-02T04:33:53.235Z,99688.41
2018-10-02T04:39:57.831Z,99691.40
2018-10-02T04:46:02.682Z,99686.60
2018-10-02T04:52:08.004Z,99668.80
2018-10-02T04:58:12.986Z,99654.30
2018-10-02T05:04:17.881Z,99663.95
2018-10-02T05:10:23.284Z,99644.28
2018-10-02T05:16:28.143Z,99646.14
2018-10-02T05:22:33.040Z,99651.48
2018-10-02T05:28:37.882Z,99661.46
2018-10-02T05:34:43.082Z,99650.12
2018-10-02T05:40:47.905Z,99657.94
2018-10-02T05:46:52.560Z,99668.95
2018-10-02T05:52:57.647Z,99678.11
2018-10-02T05:59:02.597Z,99669.94
2018-10-02T06:05:07.568Z,99678.12
2018-10-02T06:11:12.166Z,99677.75
2018-10-02T06:17:17.201Z,99673.94
2018-10-02T06:23:21.886Z,99680.28
2018-10-02T06:29:26.510Z,99684.28
2018-10-02T06:35:31.143Z,99686.90
2018-10-02T06:41:36.029Z,99682.91
2018-10-02T06:47:42.026Z,99677.05
2018-10-02T06:53:47.822Z,99681.75
2018-10-02T06:59:52.778Z,99676.42
2018-10-02T07:05:57.533Z,99682.44
2018-10-02T07:12:02.152Z,99681.77
2018-10-02T07:18:06.900Z,99683.27
2018-10-02T07:24:11.494Z,99675.59
2018-10-02T07:30:16.142Z,99670.91
2018-10-02T07:36:20.791Z,99671.77
2018-10-02T07:42:25.375Z,99663.95
2018-10-02T07:48:30.152Z,99644.61
2018-10-02T07:54:34.709Z,99654.75
2018-10-02T08:00:39.308Z,99659.08
2018-10-02T08:06:44.374Z,99643.52
2018-10-02T08:12:49.348Z,99648.69
2018-10-02T08:18:53.915Z,99629.14
2018-10-02T08:24:58.549Z,99632.47
2018-10-02T08:31:03.170Z,99621.44
2018-10-02T08:37:07.805Z,99619.64
2018-10-02T08:43:12.435Z,99607.33
2018-10-02T08:49:17.085Z,99594.27
2018-10-02T08:55:21.728Z,99573.96
2018-10-02T09:01:26.818Z,99554.92
2018-10-02T09:07:31.618Z,99543.86
2018-10-02T09:13:36.247Z,99536.11
2018-10-02T09:19:40.902Z,99515.45
2018-10-02T09:25:45.506Z,99510.83
2018-10-02T09:31:55.323Z,99499.50
2018-10-02T09:38:05.177Z,99496.41
2018-10-02T09:44:10.240Z,99500.09
2018-10-02T09:50:15.095Z,99496.36
2018-10-02T09:56:19.823Z,99493.13
2018-10-02T10:02:29.528Z,99495.92
2018-10-02T10:08:34.110Z,99471.80
2018-10-02T10:14:38.731Z,99472.34
2018-10-02T10:20:43.649Z,99467.58
2018-10-02T10:26:48.234Z,99460.55
2018-10-02T10:32:53.003Z,99463.08
2018-10-02T10:38:57.706Z,99460.36
2018-10-02T10:45:02.355Z,99457.66
2018-10-02T10:51:07.342Z,99454.38
2018-10-02T10:57:12.006Z,99438.44
2018-10-02T11:03:16.637Z,99434.15
2018-10-02T11:09:21.243Z,99420.03
2018-10-02T11:15:28.002Z,99405.91
2018-10-02T11:21:32.702Z,99393.45
2018-10-02T11:27:37.283Z,99407.40
2018-10-02T11:33:41.922Z,99392.79
2018-10-02T11:39:46.919Z,99392.44
2018-10-02T11:45:51.662Z,99395.58
2018-10-02T11:51:56.255Z,99376.76
2018-10-02T11:58:01.419Z,99365.67
2018-10-02T12:04:06.227Z,99361.98
2018-10-02T12:10:11.042Z,99352.83
2018-10-02T12:16:15.799Z,99338.13
2018-10-02T12:22:20.570Z,99336.84
2018-10-02T12:28:25.188Z,99330.22
2018-10-02T12:34:29.796Z,99313.19
2018-10-02T12:40:34.411Z,99306.38
2018-10-02T12:46:39.002Z,99291.47
2018-10-02T12:52:43.759Z,99282.89
2018-10-02T12:58:48.268Z,99285.36
2018-10-02T13:04:52.882Z,99271.67
2018-10-02T13:10:57.570Z,99276.52
2018-10-02T13:17:02.202Z,99268.80
2018-10-02T13:23:06.810Z,99264.48
2018-10-02T13:29:11.811Z,99250.50
2018-10-02T13:35:16.543Z,99232.41
2018-10-02T13:41:21.201Z,99228.34
2018-10-02T13:47:25.890Z,99234.97
2018-10-02T13:53:30.822Z,99219.75
2018-10-02T13:59:35.491Z,99216.56
2018-10-02T14:05:40.126Z,99225.92
2018-10-02T14:11:44.780Z,99214.14
2018-10-02T14:17:49.440Z,99219.30
2018-10-02T14:23:54.159Z,99228.99
2018-10-02T14:29:59.077Z,99230.81
2018-10-02T14:36:05.147Z,99237.58
2018-10-02T14:42:09.959Z,99227.27
2018-10-02T14:48:14.582Z,99230.77
2018-10-02T14:54:19.231Z,99236.61
2018-10-02T15:00:24.290Z,99236.12
2018-10-02T15:06:29.013Z,99240.64
2018-10-02T15:12:33.659Z,99232.99
2018-10-02T15:18:38.630Z,99224.84
2018-10-02T15:24:43.607Z,99226.87
2018-10-02T15:30:48.417Z,99227.83
2018-10-02T15:36:53.495Z,99229.03
2018-10-02T15:42:58.219Z,99221.52
2018-10-02T15:49:02.854Z,99229.66
2018-10-02T15:55:07.914Z,99220.11
2018-10-02T16:01:12.524Z,99213.48
2018-10-02T16:07:17.972Z,99217.61
2018-10-02T16:13:22.879Z,99215.80
2018-10-02T16:19:27.502Z,99209.30
2018-10-02T16:25:32.494Z,99225.39
2018-10-02T16:31:37.236Z,99220.73
2018-10-02T16:37:41.851Z,99225.98
2018-10-02T16:43:46.448Z,99227.80
2018-10-02T16:49:51.061Z,99234.48
2018-10-02T16:55:55.696Z,99238.20
2018-10-02T17:02:00.338Z,99234.04
2018-10-02T17:08:04.989Z,99239.25
2018-10-02T17:14:09.657Z,99242.47
2018-10-02T17:20:14.252Z,99247.69
2018-10-02T17:26:18.942Z,99258.62
2018-10-02T17:32:23.582Z,99264.88
2018-10-02T17:38:28.582Z,99268.83
2018-10-02T17:44:33.270Z,99276.81
2018-10-02T17:50:37.887Z,99277.81
2018-10-02T17:56:42.514Z,99273.74
2018-10-02T18:02:47.452Z,99268.14
2018-10-02T18:08:52.065Z,99273.30
2018-10-02T18:14:56.671Z,99275.59
2018-10-02T18:21:01.278Z,99281.74
2018-10-02T18:27:05.904Z,99281.98
2018-10-02T18:33:10.584Z,99289.45
2018-10-02T18:39:15.271Z,99296.47
2018-10-02T18:45:19.943Z,99295.06
2018-10-02T18:51:24.582Z,99295.14
2018-10-02T18:57:29.243Z,99301.14
2018-10-02T19:03:33.943Z,99301.96
2018-10-02T19:09:38.662Z,99296.91
2018-10-02T19:16:47.230Z,99291.22
2018-10-02T19:22:51.889Z,99291.42
2018-10-02T19:28:56.681Z,99294.12
2018-10-02T19:35:02.391Z,99296.89
2018-10-02T19:41:07.221Z,99295.16
2018-10-02T19:47:11.928Z,99306.63
2018-10-02T19:53:16.590Z,99306.73
2018-10-02T19:59:21.450Z,99314.89
2018-10-02T20:05:26.166Z,99323.05
2018-10-02T20:11:30.801Z,99329.05
2018-10-02T20:17:35.488Z,99332.25
2018-10-02T20:23:40.127Z,99345.20
2018-10-02T20:29:44.759Z,99341.34
2018-10-02T20:35:49.447Z,99350.03
2018-10-02T20:41:54.090Z,99356.03
2018-10-02T20:47:58.774Z,99357.28
2018-10-02T20:54:03.414Z,99355.02
2018-10-02T21:00:08.097Z,99360.87
2018-10-02T21:06:13.497Z,99366.14
2018-10-02T21:12:18.146Z,99367.16
2018-10-02T21:18:23.489Z,99360.24
2018-10-02T21:24:28.150Z,99368.42
2018-10-02T21:30:33.451Z,99354.03
2018-10-02T21:36:38.327Z,99356.01
2018-10-02T21:42:43.915Z,99368.89
2018-10-02T21:48:48.868Z,99371.89
2018-10-02T21:54:53.877Z,99373.53
2018-10-02T22:01:04.171Z,99357.62
2018-10-02T22:07:09.498Z,99374.81
2018-10-02T22:13:14.179Z,99375.64
2018-10-02T22:19:18.814Z,99369.53
2018-10-02T22:25:23.497Z,99385.71
2018-10-02T22:31:28.172Z,99402.34
2018-10-02T22:37:32.854Z,99389.70
2018-10-02T22:43:37.541Z,99393.93
2018-10-02T22:49:42.543Z,99407.95
2018-10-02T22:55:47.148Z,99412.89
2018-10-02T23:01:51.853Z,99423.94
2018-10-02T23:07:56.910Z,99443.94
2018-10-02T23:14:01.531Z,99451.24
2018-10-02T23:20:06.901Z,99442.43
2018-10-02T23:26:11.767Z,99456.16
2018-10-02T23:32:16.766Z,99455.20
2018-10-02T23:38:21.506Z,99462.55
2018-10-02T23:44:26.183Z,99464.05
2018-10-02T23:50:31.349Z,99456.08
2018-10-02T23:56:36.731Z,99462.78
